.
WxDataArchive / Data Records for 2013-06-09
2013-06-08 June 2013 2013-06-10

Data Records for Sunday, 09 June 2013

Time	Temp	Chill	HIndex	Humid	Dewpt	 Wind 	HiWind	WindDir	Rain 	Barom 
-----	----	-----	------	-----	-----	------	------	-------	-----	----- 
00:00	67.3	67.3	67.3	62	53.8	0	0	---	0.00	30.010 
00:05	67.3	67.3	67.3	63	54.3	0	0	---	0.00	30.010 
00:10	67.3	67.3	67.3	62	53.8	0	1	112	0.00	30.010 
00:15	67.6	67.6	67.6	61	53.7	0	1	112	0.00	30.013 
00:20	67.9	67.9	67.9	61	53.9	0	0	---	0.00	30.013 
00:25	68.1	68.1	68.1	61	54.1	0	1	112	0.00	30.013 
00:30	68.1	68.1	68.1	61	54.1	0	2	112	0.00	30.015 
00:35	68.1	68.1	68.1	61	54.1	0	1	112	0.00	30.015 
00:40	67.9	67.9	67.9	62	54.4	0	1	112	0.00	30.015 
00:45	67.8	67.8	67.8	62	54.3	0	1	112	0.00	30.015 
00:50	67.8	67.8	67.8	62	54.3	0	0	---	0.00	30.015 
00:55	67.6	67.6	67.6	63	54.5	0	1	112	0.00	30.015 
01:00	67.4	67.4	67.4	63	54.4	0	0	---	0.00	30.014 
01:05	67.3	67.3	67.3	64	54.7	0	0	---	0.00	30.014 
01:10	67.1	67.1	67.1	65	54.9	0	0	---	0.00	30.014 
01:15	66.8	66.8	66.8	66	55.1	0	0	---	0.00	30.014 
01:20	66.3	66.3	66.3	66	54.6	0	0	---	0.00	30.014 
01:25	66.1	66.1	66.1	67	54.8	0	0	---	0.00	30.014 
01:30	65.8	65.8	65.8	67	54.5	0	0	---	0.00	30.018 
01:35	65.6	65.6	65.6	68	54.7	0	0	---	0.00	30.018 
01:40	65.3	65.3	65.3	68	54.5	0	1	112	0.00	30.018 
01:45	65.2	65.2	65.2	69	54.8	0	0	---	0.00	30.019 
01:50	64.7	64.7	64.7	69	54.3	0	0	---	0.00	30.019 
01:55	64.3	64.3	64.3	71	54.7	0	0	---	0.00	30.019 
02:00	64.0	64.0	64.0	72	54.8	0	0	---	0.00	30.021 
02:05	63.7	63.7	63.7	73	54.9	0	0	---	0.00	30.021 
02:10	63.5	63.5	63.5	74	55.1	0	0	---	0.00	30.021 
02:15	63.4	63.4	63.4	74	55.0	0	0	---	0.00	30.023 
02:20	63.2	63.2	63.2	76	55.5	0	0	---	0.00	30.023 
02:25	63.2	63.2	63.2	76	55.5	0	0	---	0.00	30.023 
02:30	63.2	63.2	63.2	76	55.5	0	0	---	0.00	30.022 
02:35	63.2	63.2	63.2	77	55.9	0	0	---	0.00	30.022 
02:40	63.2	63.2	63.2	77	55.9	0	0	---	0.00	30.022 
02:45	63.2	63.2	63.2	77	55.9	0	0	---	0.00	30.024 
02:50	63.4	63.4	63.4	76	55.7	0	0	---	0.00	30.024 
02:55	63.5	63.5	63.5	76	55.8	0	0	---	0.00	30.024 
03:00	63.5	63.5	63.5	76	55.8	0	0	---	0.00	30.021 
03:05	63.7	63.7	63.7	76	56.0	0	0	---	0.00	30.021 
03:10	63.7	63.7	63.7	76	56.0	0	0	---	0.00	30.021 
03:15	63.7	63.7	63.7	76	56.0	0	0	---	0.00	30.020 
03:20	63.7	63.7	63.7	75	55.6	0	0	---	0.00	30.020 
03:25	63.7	63.7	63.7	75	55.6	0	1	112	0.00	30.020 
03:30	63.7	63.7	63.7	75	55.6	0	0	---	0.00	30.019 
03:35	63.7	63.7	63.7	75	55.6	0	0	---	0.00	30.019 
03:40	63.9	63.9	63.9	76	56.2	0	0	---	0.00	30.019 
03:45	63.9	63.9	63.9	76	56.2	0	0	---	0.00	30.019 
03:50	63.9	63.9	63.9	76	56.2	0	0	---	0.00	30.019 
03:55	63.9	63.9	63.9	76	56.2	0	0	---	0.00	30.019 
04:00	63.9	63.9	63.9	76	56.2	0	0	---	0.00	30.019 
04:05	63.9	63.9	63.9	77	56.5	0	1	112	0.00	30.019 
04:10	63.9	63.9	63.9	77	56.5	0	0	---	0.00	30.019 
04:15	63.7	63.7	63.7	77	56.3	0	0	---	0.00	30.016 
04:20	63.7	63.7	63.7	77	56.3	0	0	---	0.00	30.016 
04:25	63.5	63.5	63.5	77	56.2	0	0	---	0.00	30.016 
04:30	63.5	63.5	63.5	78	56.5	0	0	---	0.00	30.015 
04:35	63.4	63.4	63.4	78	56.4	0	2	112	0.00	30.015 
04:40	63.2	63.2	63.2	78	56.2	0	2	112	0.00	30.015 
04:45	63.2	63.2	63.2	78	56.2	0	2	112	0.00	30.016 
04:50	63.1	63.1	63.1	79	56.5	0	1	112	0.00	30.016 
04:55	63.1	63.1	63.1	79	56.5	0	1	112	0.00	30.016 
05:00	62.9	62.9	62.9	79	56.3	0	1	112	0.00	30.018 
05:05	62.9	62.9	62.9	79	56.3	0	1	112	0.00	30.018 
05:10	62.9	62.9	62.9	79	56.3	0	3	112	0.00	30.018 
05:15	62.7	62.7	62.7	79	56.1	0	2	112	0.00	30.018 
05:20	62.7	62.7	62.7	79	56.1	0	1	112	0.00	30.018 
05:25	62.7	62.7	62.7	79	56.1	0	1	112	0.00	30.018 
05:30	62.6	62.6	62.6	79	56.0	0	0	---	0.00	30.021 
05:35	62.6	62.6	62.6	79	56.0	0	1	112	0.00	30.021 
05:40	62.4	62.4	62.4	79	55.8	0	2	112	0.00	30.021 
05:45	62.4	62.4	62.4	79	55.8	0	1	112	0.00	30.032 
05:50	62.3	62.3	62.3	79	55.7	0	0	---	0.00	30.032 
05:55	62.3	62.3	62.3	79	55.7	0	0	---	0.00	30.032 
06:00	62.1	62.1	62.1	80	55.9	0	0	---	0.00	30.033 
06:05	62.0	62.0	62.0	80	55.8	0	1	112	0.00	30.033 
06:10	62.0	62.0	62.0	80	55.8	1	2	112	0.00	30.033 
06:15	61.8	61.8	61.8	80	55.6	0	1	112	0.00	30.031 
06:20	61.8	61.8	61.8	80	55.6	0	3	112	0.00	30.031 
06:25	61.6	61.6	61.6	80	55.4	1	3	112	0.00	30.031 
06:30	61.6	61.6	61.6	80	55.4	1	2	112	0.00	30.033 
06:35	61.6	61.6	61.6	81	55.7	0	2	112	0.00	30.033 
06:40	61.5	61.5	61.5	81	55.6	0	2	112	0.00	30.033 
06:45	61.5	61.5	61.5	81	55.6	0	2	112	0.00	30.034 
06:50	61.3	61.3	61.3	82	55.8	0	2	112	0.00	30.034 
06:55	61.3	61.3	61.3	82	55.8	0	1	112	0.00	30.034 
07:00	61.3	61.3	61.3	82	55.8	0	2	112	0.00	30.036 
07:05	61.3	61.3	61.3	82	55.8	0	2	112	0.00	30.036 
07:10	61.3	61.3	61.3	82	55.8	1	3	112	0.00	30.036 
07:15	61.5	61.5	61.5	83	56.3	0	4	112	0.00	30.036 
07:20	61.6	61.6	61.6	82	56.0	0	4	112	0.00	30.036 
07:25	62.0	62.0	62.0	82	56.4	1	3	112	0.00	30.036 
07:30	62.3	62.3	62.3	82	56.7	0	2	112	0.00	30.037 
07:35	62.6	62.6	62.6	81	56.7	0	3	112	0.00	30.037 
07:40	63.1	63.1	63.1	80	56.8	0	2	90	0.00	30.037 
07:45	63.4	63.4	63.4	79	56.8	1	3	90	0.00	30.038 
07:50	63.9	63.9	63.9	79	57.3	0	3	90	0.00	30.038 
07:55	64.3	64.3	64.3	78	57.3	0	1	90	0.00	30.038 
08:00	64.8	64.8	64.8	77	57.4	1	3	90	0.00	30.038 
08:05	65.2	65.2	65.2	76	57.4	1	3	90	0.00	30.038 
08:10	65.3	65.3	65.3	76	57.5	1	4	90	0.00	30.038 
08:15	65.5	65.5	65.5	75	57.4	1	3	90	0.00	30.040 
08:20	65.6	65.6	65.6	76	57.8	1	3	90	0.00	30.040 
08:25	65.6	65.6	65.6	76	57.8	1	4	90	0.00	30.040 
08:30	65.8	65.8	65.8	76	58.0	0	3	90	0.00	30.036 
08:35	66.0	66.0	66.0	76	58.2	0	2	90	0.00	30.036 
08:40	66.0	66.0	66.0	76	58.2	0	2	90	0.00	30.036 
08:45	66.3	66.3	66.3	76	58.5	0	1	90	0.00	30.036 
08:50	66.4	66.4	66.4	75	58.2	1	5	90	0.00	30.036 
08:55	66.8	66.8	66.8	74	58.2	0	5	90	0.00	30.036 
09:00	67.3	67.3	67.3	74	58.7	1	3	90	0.00	30.032 
09:05	67.8	67.8	67.8	73	58.8	1	3	90	0.00	30.032 
09:10	67.9	67.9	67.9	73	58.9	0	3	90	0.00	30.032 
09:15	67.9	67.9	67.9	73	58.9	1	3	90	0.00	30.033 
09:20	67.9	67.9	67.9	73	58.9	1	3	90	0.00	30.033 
09:25	68.1	68.1	68.1	73	59.1	1	3	90	0.00	30.033 
09:30	68.3	68.3	68.3	74	59.7	0	3	90	0.00	30.031 
09:35	68.4	68.4	68.4	73	59.4	1	3	90	0.00	30.031 
09:40	68.8	68.8	68.8	73	59.8	1	2	90	0.00	30.031 
09:45	68.9	68.9	68.9	73	59.9	1	3	90	0.00	30.022 
09:50	69.1	69.1	69.1	72	59.7	1	4	90	0.00	30.022 
09:55	69.1	69.1	69.1	72	59.7	1	3	90	0.00	30.022 
10:00	69.3	69.3	69.3	73	60.3	1	3	90	0.00	30.019 
10:05	69.6	69.6	69.6	71	59.8	0	1	90	0.00	30.019 
10:10	70.3	70.3	70.3	71	60.4	0	1	90	0.00	30.019 
10:15	70.9	70.9	70.9	70	60.6	0	2	90	0.00	30.018 
10:20	71.6	71.6	71.6	68	60.5	0	2	90	0.00	30.018 
10:25	72.3	72.3	72.3	68	61.1	0	2	90	0.00	30.018 
10:30	72.3	72.3	72.3	67	60.7	1	4	90	0.00	30.016 
10:35	72.3	72.3	72.3	67	60.7	0	2	90	0.00	30.016 
10:40	72.3	72.3	72.3	68	61.1	2	4	90	0.00	30.016 
10:45	72.5	72.5	72.5	67	60.9	0	3	90	0.00	30.014 
10:50	72.8	72.8	72.8	68	61.6	1	3	90	0.00	30.014 
10:55	73.0	73.0	73.0	68	61.8	1	3	90	0.00	30.014 
11:00	73.0	73.0	73.0	68	61.8	2	6	90	0.00	30.005 
11:05	73.0	73.0	73.0	68	61.8	1	3	90	0.00	30.005 
11:10	73.0	73.0	73.0	68	61.8	1	3	90	0.00	30.005 
11:15	73.3	73.3	73.3	67	61.7	1	2	90	0.00	30.004 
11:20	73.7	73.7	73.7	68	62.5	0	1	90	0.00	30.004 
11:25	74.4	74.4	74.4	67	62.7	1	3	90	0.00	30.004 
11:30	74.6	74.6	74.6	65	62.0	1	3	90	0.00	30.002 
11:35	75.1	75.1	77.1	65	62.5	0	2	90	0.00	30.002 
11:40	75.8	75.8	77.7	64	62.7	1	3	90	0.00	30.002 
11:45	76.3	76.3	78.2	63	62.8	1	3	90	0.00	30.005 
11:50	76.8	76.8	78.6	61	62.3	1	3	90	0.00	30.005 
11:55	77.6	77.6	79.4	62	63.5	2	5	90	0.00	30.005 
12:00	77.7	77.7	79.4	61	63.2	1	3	90	0.00	30.005 
12:05	77.4	77.4	79.1	61	62.9	1	5	90	0.00	30.005 
12:10	77.0	77.0	78.8	62	63.0	1	5	90	0.00	30.005 
12:15	77.2	77.2	79.0	61	62.7	2	4	90	0.00	30.000 
12:20	77.4	77.4	79.1	60	62.4	1	4	90	0.00	30.000 
12:25	77.9	77.9	79.5	59	62.4	1	2	90	0.00	30.000 
12:30	78.1	78.1	79.7	58	62.1	1	3	90	0.00	29.998 
12:35	78.3	78.3	79.9	58	62.3	1	4	90	0.00	29.998 
12:40	78.5	78.5	80.2	60	63.4	1	3	90	0.00	29.998 
12:45	78.6	78.6	80.1	58	62.6	0	2	90	0.00	29.986 
12:50	78.8	78.8	80.3	58	62.8	1	3	90	0.00	29.986 
12:55	79.2	79.2	80.7	57	62.6	2	7	90	0.00	29.986 
13:00	79.0	79.0	80.5	57	62.4	2	7	112	0.00	29.981 
13:05	79.0	79.0	80.4	56	61.9	1	2	112	0.00	29.981 
13:10	78.8	78.8	80.2	56	61.8	1	3	112	0.00	29.981 
13:15	78.5	78.5	80.0	57	62.0	1	2	112	0.00	29.980 
13:20	78.5	78.5	79.9	56	61.5	1	2	112	0.00	29.980 
13:25	79.2	79.2	80.7	57	62.6	1	3	112	0.00	29.980 
13:30	79.9	79.9	81.0	53	61.2	1	3	112	0.00	29.972 
13:35	79.8	79.8	80.9	53	61.1	1	7	112	0.00	29.972 
13:40	79.8	79.8	80.6	50	59.5	1	3	68	0.00	29.972 
13:45	79.8	79.8	80.7	51	60.0	1	4	68	0.00	29.966 
13:50	79.4	79.4	80.2	49	58.5	1	4	112	0.00	29.966 
13:55	79.8	79.8	80.5	49	58.9	0	1	112	0.00	29.966 
14:00	80.1	80.1	80.9	50	59.8	1	4	112	0.00	29.956 
14:05	80.1	80.1	80.7	48	58.6	1	3	112	0.00	29.956 
14:10	80.5	80.5	81.0	48	59.0	0	2	315	0.00	29.956 
14:15	80.9	80.9	80.8	42	55.6	1	6	315	0.00	29.951 
14:20	81.1	81.1	81.0	43	56.5	1	3	315	0.00	29.951 
14:25	81.4	81.4	81.5	45	58.0	1	3	90	0.00	29.951 
14:30	81.4	81.4	81.1	41	55.4	1	3	90	0.00	29.945 
14:35	81.1	81.1	81.1	44	57.1	0	0	---	0.00	29.945 
14:40	80.9	80.9	81.0	44	56.9	0	2	45	0.00	29.945 
14:45	80.5	80.5	80.6	43	55.9	0	3	45	0.00	29.941 
14:50	80.1	80.1	80.3	43	55.6	1	3	22	0.00	29.941 
14:55	80.1	80.1	80.2	42	54.9	1	4	90	0.00	29.941 
15:00	80.5	80.5	80.5	42	55.3	1	3	112	0.00	29.938 
15:05	80.9	80.9	80.7	41	55.0	2	6	112	0.00	29.938 
15:10	80.9	80.9	80.8	42	55.6	1	3	90	0.00	29.938 
15:15	81.1	81.1	80.8	41	55.1	1	4	90	0.00	29.931 
15:20	81.4	81.4	81.2	42	56.1	1	4	135	0.00	29.931 
15:25	81.6	81.6	81.1	40	54.9	1	4	112	0.00	29.931 
15:30	81.6	81.6	81.1	40	54.9	2	7	112	0.00	29.922 
15:35	81.6	81.6	81.3	42	56.3	1	3	112	0.00	29.922 
15:40	81.4	81.4	80.9	39	54.0	1	4	292	0.00	29.922 
15:45	81.4	81.4	81.0	40	54.7	1	3	68	0.00	29.921 
15:50	81.4	81.4	81.5	45	58.0	0	1	112	0.00	29.921 
15:55	81.4	81.4	81.1	41	55.4	1	4	112	0.00	29.921 
16:00	81.2	81.2	80.9	41	55.2	0	2	90	0.00	29.920 
16:05	81.2	81.2	81.0	42	55.9	0	2	90	0.00	29.920 
16:10	81.4	81.4	80.9	39	54.0	1	3	90	0.00	29.920 
16:15	81.8	81.8	81.6	43	57.1	1	3	90	0.00	29.908 
16:20	82.4	82.4	81.6	38	54.2	1	4	90	0.00	29.908 
16:25	82.4	82.4	81.6	38	54.2	1	5	112	0.00	29.908 
16:30	82.6	82.6	81.6	37	53.7	0	2	112	0.00	29.902 
16:35	82.8	82.8	82.0	39	55.3	0	4	112	0.00	29.902 
16:40	83.2	83.2	82.1	37	54.2	1	5	90	0.00	29.902 
16:45	83.4	83.4	82.2	36	53.6	1	5	112	0.00	29.899 
16:50	83.6	83.6	82.8	39	56.0	0	2	112	0.00	29.899 
16:55	83.6	83.6	82.5	37	54.5	1	3	112	0.00	29.899 
17:00	83.6	83.6	82.8	39	56.0	0	1	112	0.00	29.896 
17:05	83.4	83.4	82.2	36	53.6	1	3	112	0.00	29.896 
17:10	83.0	83.0	82.0	37	54.0	0	1	112	0.00	29.896 
17:15	82.4	82.4	81.2	35	52.0	1	4	112	0.00	29.893 
17:20	81.8	81.8	80.9	36	52.2	1	3	90	0.00	29.893 
17:25	81.4	81.4	80.8	38	53.3	0	2	90	0.00	29.893 
17:30	81.4	81.4	80.7	37	52.6	2	6	90	0.00	29.891 
17:35	81.4	81.4	80.6	36	51.9	2	7	135	0.00	29.891 
17:40	81.4	81.4	80.5	35	51.1	1	3	68	0.00	29.891 
17:45	81.4	81.4	80.7	37	52.6	1	3	68	0.00	29.889 
17:50	81.4	81.4	80.7	37	52.6	1	3	90	0.00	29.889 
17:55	81.4	81.4	80.7	37	52.6	1	3	90	0.00	29.889 
18:00	81.2	81.2	80.5	37	52.4	1	3	90	0.00	29.890 
18:05	81.2	81.2	80.6	38	53.1	1	3	90	0.00	29.890 
18:10	81.1	81.1	80.5	38	53.1	1	4	90	0.00	29.890 
18:15	80.9	80.9	80.5	39	53.6	1	4	90	0.00	29.889 
18:20	80.7	80.7	80.2	38	52.7	2	5	90	0.00	29.889 
18:25	80.7	80.7	80.2	37	52.0	2	5	90	0.00	29.889 
18:30	80.7	80.7	80.2	38	52.7	1	4	135	0.00	29.883 
18:35	80.5	80.5	80.2	39	53.2	1	4	135	0.00	29.883 
18:40	80.5	80.5	80.2	39	53.2	2	5	90	0.00	29.883 
18:45	80.3	80.3	80.1	40	53.8	1	4	112	0.00	29.879 
18:50	80.3	80.3	80.2	41	54.4	1	4	158	0.00	29.879 
18:55	80.1	80.1	80.2	42	54.9	1	3	135	0.00	29.879 
19:00	79.9	79.9	80.0	42	54.7	1	3	112	0.00	29.877 
19:05	79.8	79.8	79.8	40	53.3	1	4	112	0.00	29.877 
19:10	79.9	79.9	79.9	40	53.4	2	5	112	0.00	29.877 
19:15	79.9	79.9	79.9	40	53.4	1	3	112	0.00	29.872 
19:20	79.9	79.9	79.9	40	53.4	1	3	112	0.00	29.872 
19:25	79.8	79.8	79.9	41	54.0	0	2	112	0.00	29.872 
19:30	79.8	79.8	79.9	41	54.0	1	4	90	0.00	29.869 
19:35	79.6	79.6	79.7	41	53.8	2	5	112	0.00	29.869 
19:40	79.6	79.6	79.8	42	54.5	1	7	45	0.00	29.869 
19:45	79.4	79.4	79.8	43	54.9	2	4	90	0.00	29.874 
19:50	79.0	79.0	79.7	46	56.4	3	10	90	0.00	29.874 
19:55	78.3	78.3	79.3	48	57.0	2	5	112	0.00	29.874 
20:00	77.6	77.6	79.0	51	58.0	1	5	90	0.00	29.888 
20:05	76.8	76.8	78.5	53	58.4	1	4	90	0.00	29.888 
20:10	76.3	76.3	78.3	54	58.4	2	4	90	0.00	29.888 
20:15	75.8	75.8	77.9	56	59.0	1	2	90	0.00	29.894 
20:20	75.3	75.3	77.6	58	59.5	1	4	90	0.00	29.894 
20:25	74.9	74.9	74.9	60	60.1	1	4	90	0.00	29.894 
20:30	74.4	74.4	74.4	62	60.5	0	2	45	0.00	29.891 
20:35	73.9	73.9	73.9	64	60.9	1	4	90	0.00	29.891 
20:40	73.5	73.5	73.5	65	61.0	0	2	90	0.00	29.891 
20:45	73.2	73.2	73.2	66	61.1	0	1	90	0.00	29.891 
20:50	72.8	72.8	72.8	67	61.2	0	3	90	0.00	29.891 
20:55	72.5	72.5	72.5	68	61.3	0	1	90	0.00	29.891 
21:00	72.3	72.3	72.3	69	61.5	0	2	90	0.00	29.891 
21:05	72.1	72.1	72.1	69	61.4	0	1	90	0.00	29.891 
21:10	71.8	71.8	71.8	70	61.5	0	2	90	0.00	29.891 
21:15	71.6	71.6	71.6	71	61.7	0	1	90	0.00	29.891 
21:20	71.5	71.5	71.5	72	62.0	0	1	90	0.00	29.891 
21:25	71.3	71.3	71.3	73	62.2	0	1	90	0.00	29.891 
21:30	71.3	71.3	71.3	74	62.6	0	2	90	0.00	29.892 
21:35	70.9	70.9	70.9	74	62.2	0	2	90	0.00	29.892 
21:40	70.8	70.8	70.8	75	62.5	0	2	112	0.01	29.892 
21:45	70.6	70.6	70.6	76	62.7	0	2	112	0.00	29.891 
21:50	70.4	70.4	70.4	77	62.8	0	2	180	0.00	29.891 
21:55	70.4	70.4	70.4	77	62.8	0	2	180	0.00	29.891 
22:00	70.4	70.4	70.4	78	63.2	1	4	180	0.00	29.894 
22:05	70.4	70.4	70.4	78	63.2	1	4	90	0.00	29.894 
22:10	70.3	70.3	70.3	79	63.5	2	5	112	0.00	29.894 
22:15	69.9	69.9	69.9	81	63.8	2	5	90	0.01	29.888 
22:20	69.6	69.6	69.6	81	63.5	1	4	90	0.00	29.888 
22:25	69.3	69.3	69.3	82	63.6	1	5	90	0.00	29.888 
22:30	68.9	68.9	68.9	82	63.2	1	3	90	0.00	29.890 
22:35	68.8	68.8	68.8	84	63.8	0	2	90	0.00	29.890 
22:40	68.4	68.4	68.4	85	63.7	0	2	90	0.00	29.890 
22:45	68.3	68.3	68.3	86	63.9	1	3	90	0.01	29.878 
22:50	68.1	68.1	68.1	87	64.1	1	3	90	0.00	29.878 
22:55	67.9	67.9	67.9	88	64.2	0	1	90	0.00	29.878 
23:00	67.9	67.9	67.9	88	64.2	1	3	90	0.00	29.876 
23:05	67.9	67.9	67.9	89	64.5	1	3	90	0.00	29.876 
23:10	67.9	67.9	67.9	89	64.5	1	3	90	0.00	29.876 
23:15	67.8	67.8	67.8	90	64.8	0	2	90	0.00	29.870 
23:20	67.8	67.8	67.8	90	64.8	0	1	90	0.00	29.870 
23:25	67.8	67.8	67.8	90	64.8	0	2	90	0.00	29.870 
23:30	67.8	67.8	67.8	90	64.8	1	3	90	0.00	29.857 
23:35	67.8	67.8	67.8	90	64.8	1	4	90	0.00	29.857 
23:40	67.9	67.9	67.9	90	64.9	1	3	90	0.00	29.857 
23:45	67.9	67.9	67.9	91	65.2	0	2	90	0.00	29.854 
23:50	67.8	67.8	67.8	90	64.8	1	3	90	0.00	29.854 
23:55	67.8	67.8	67.8	91	65.1	1	3	90	0.00	29.854 

CoCoRaHS
IN-AL-39
A2 Web Hosting
Creative Commons License
GoDaddy
search engine by freefind advanced

loaded 2018-11-16 11:14:27 • last modified 2010-11-18 10:43:29
Privacy PolicyDisclaimer
• wx.awcolley.com is powered by PmWiki v.2002016 •
• all content (unless otherwise noted) © 2018 A W Colley